LIMPLIMZ

Guest
Details From LIMP - Parma
To LIMZ - Levaldigi
Flight Number -
Tags Generated
Created
Modified
Stats Distance 116 nm / 214 km
Max Altitude 0 ft / 0 m
Waypoints 2
Social Downloads 2
Likes 0
Share VATSIM

Download

Looking for another format? Having issues loading an existing format? Contact us
Advertisement - Login to hide

Notes

Generated

Route

LIMP LIMZ

ID Type Via Altitude Latitude Longitude Leg Dist Tot Dist Heading (true) Name
O LIMP APT - 0 ft / 0 m 44.81766˚ 10.29313˚ - 0 nm - -
O LIMZ APT - 0 ft / 0 m 44.53963˚ 7.61619˚ 115 nm 115 nm 263° / 261° -

Altitude Profile

Advertisement - Login to hide

LIMP

Details ICAO LIMP (PMF)
Name PARMA
Region Italy
Timezone Europe/Rome (UTC+1.0)
Stats Elevation 161 ft / 49 m (AMSL)
Location 44.826774° 10.297108°
Runways 1
Magnetic Variation 2.715° E

METAR

Not found

TAF

TAF LIMP 130500Z 1306/1406 VRB05KT 1500 BCFG SCT040 TEMPO 1306/1309 0500 FG BKN005 BECMG 1309/1311 4000 BR BECMG 1320/1322 1500 BCFG TEMPO 1400/1406 0500 FG BKN005

Decode

Departure Runways

ID Width Length Bearing (true) Bearing (mag) Surface Threshold Offset Overrun Length
02 148 ft / 45 m 6,966 ft / 2,123 m 17.20° 14.49° Asphalt 702 ft / 214 m 0 ft / 0 m
20 148 ft / 45 m 6,966 ft / 2,123 m 197.20° 194.49° Asphalt 597 ft / 182 m 0 ft / 0 m

LIMZ

Details ICAO LIMZ (CUF)
Name LEVALDIGI
Region Italy
Timezone Europe/Rome (UTC+1.0)
Stats Elevation 1,267 ft / 386 m (AMSL)
Location 44.547603° 7.623322°
Runways 1
Magnetic Variation 2.113° E

METAR

Not found

TAF

TAF LIMZ 130500Z 1306/1406 VRB05KT CAVOK

Decode

Destination Runways

ID Width Length Bearing (true) Bearing (mag) Surface Threshold Offset Overrun Length
03 148 ft / 45 m 6,903 ft / 2,104 m 32.49° 30.38° Asphalt 0 ft / 0 m 696 ft / 212 m
21 148 ft / 45 m 6,903 ft / 2,104 m 212.50° 210.39° Asphalt 0 ft / 0 m 581 ft / 177 m

Approach Navaids

Runway Type Ident Frequency Range Bearing (true) Bearing (mag) Slope Elevation
21 Localiser LEV 110.95 MHz 18 nm / 33 km 212.50° 210.38° - 1,267 ft / 386 m (AMSL)
21 Glidescope LEV 110.95 MHz 10 nm / 19 km 212.50° 210.38° 3.00° 1,267 ft / 386 m (AMSL)